Time;durP1;ratioP1;P1;durP2;ratioP2;P2;SDS_P1;SDS_P2;PMS_P1;PMS_P2;Temp;Humidity;BMP_temperature;BMP_pressure;BME280_temperature;BME280_humidity;BME280_pressure;Samples;Min_cycle;Max_cycle;Signal;HPM_P1;HPM_P2
2023/05/26 00:02:19;;;;;;;14.30;9.30;;;;;;;26.09;41.73;100033.24;107473;1263;60209;-66
2023/05/26 00:04:46;;;;;;;14.60;8.90;;;;;;;26.34;41.13;100033.01;107483;1266;73120;-67
2023/05/26 00:07:15;;;;;;;13.20;9.20;;;;;;;26.18;41.39;100034.48;107539;1263;70548;-68
2023/05/26 00:09:42;;;;;;;14.20;9.50;;;;;;;26.11;41.62;100034.33;107528;1265;72623;-67
2023/05/26 00:12:09;;;;;;;11.90;9.10;;;;;;;26.10;41.69;100035.85;107502;1264;61780;-67
2023/05/26 00:14:36;;;;;;;11.50;9.50;;;;;;;26.09;41.86;100035.94;107560;1264;59368;-66
2023/05/26 00:17:02;;;;;;;12.80;9.50;;;;;;;26.03;41.95;100039.85;108028;1254;73473;-67
2023/05/26 00:19:31;;;;;;;13.00;9.90;;;;;;;26.05;41.97;100039.11;107978;1254;70592;-67
2023/05/26 00:21:58;;;;;;;14.40;10.70;;;;;;;26.04;42.07;100041.88;108000;1254;73068;-65
2023/05/26 00:24:25;;;;;;;12.80;10.30;;;;;;;26.04;42.06;100041.95;107966;1254;61985;-67
2023/05/26 00:26:52;;;;;;;13.20;10.00;;;;;;;26.06;41.96;100042.73;108006;1254;60009;-65
2023/05/26 00:29:18;;;;;;;12.80;9.30;;;;;;;26.13;42.04;100040.39;108010;1254;73346;-66
2023/05/26 00:31:56;;;;;;;12.20;9.70;;;;;;;26.18;41.96;100041.53;107980;1254;70589;-66
2023/05/26 00:34:23;;;;;;;12.60;10.40;;;;;;;26.32;41.73;100042.34;107793;1260;72114;-65
2023/05/26 00:36:50;;;;;;;14.20;10.10;;;;;;;26.34;41.54;100036.23;108089;1254;60877;-66
2023/05/26 00:39:17;;;;;;;15.70;10.70;;;;;;;26.53;41.14;100046.18;108020;1254;60312;-67
2023/05/26 00:41:43;;;;;;;13.00;10.10;;;;;;;26.40;41.48;100054.04;108059;1254;73186;-66
2023/05/26 00:44:10;;;;;;;14.20;10.10;;;;;;;26.26;42.11;100045.80;108009;1260;59631;-65
2023/05/26 00:46:37;;;;;;;14.60;10.40;;;;;;;26.29;42.16;100054.59;108014;1260;72724;-66
2023/05/26 00:49:04;;;;;;;16.00;10.40;;;;;;;26.27;42.20;100047.58;108035;1254;61062;-67
2023/05/26 00:51:32;;;;;;;17.70;11.70;;;;;;;26.41;41.88;100054.11;108053;1254;60098;-68
2023/05/26 00:54:00;;;;;;;15.80;11.50;;;;;;;26.53;41.57;100048.37;108044;1254;72022;-67
2023/05/26 00:56:28;;;;;;;16.20;12.20;;;;;;;26.48;41.64;100056.52;107987;1254;70587;-71
2023/05/26 00:58:56;;;;;;;15.60;11.40;;;;;;;26.53;41.60;100049.52;107872;1254;73033;-68
2023/05/26 01:01:25;;;;;;;19.50;12.20;;;;;;;26.49;41.58;100051.78;107915;1256;61671;-67
2023/05/26 01:03:52;;;;;;;16.40;12.70;;;;;;;26.48;41.56;100047.97;107961;1256;60308;-67
2023/05/26 01:06:20;;;;;;;13.90;12.10;;;;;;;26.62;41.50;100052.05;107923;1259;73364;-70
2023/05/26 01:08:48;;;;;;;19.30;12.90;;;;;;;26.46;41.82;100050.34;107915;1258;69430;-69
2023/05/26 01:11:42;;;;;;;17.60;13.10;;;;;;;26.27;42.31;100056.29;107948;1255;71936;-69
2023/05/26 01:14:16;;;;;;;15.70;12.50;;;;;;;26.41;42.12;100060.21;107923;1256;61631;-70
2023/05/26 01:16:51;;;;;;;16.40;12.70;;;;;;;26.37;42.27;100055.77;107969;1256;60746;-68
2023/05/26 01:19:20;;;;;;;17.40;12.30;;;;;;;26.45;42.18;100057.09;107925;1257;72022;-67
2023/05/26 01:21:47;;;;;;;15.80;12.90;;;;;;;26.49;42.27;100059.33;107865;1257;70242;-68
2023/05/26 01:24:39;;;;;;;12.80;11.00;;;;;;;26.47;42.11;100053.27;107809;1257;59634;-70
2023/05/26 01:27:17;;;;;;;19.70;15.40;;;;;;;26.39;42.17;100052.27;107943;1254;60503;-70
2023/05/26 01:29:43;;;;;;;19.00;11.50;;;;;;;26.33;42.25;100059.63;108003;1260;60288;-69
2023/05/26 01:32:15;;;;;;;18.40;13.00;;;;;;;26.34;42.10;100060.48;107994;1254;72946;-70
2023/05/26 01:34:42;;;;;;;15.10;11.40;;;;;;;26.30;42.14;100061.71;108084;1254;70431;-68
2023/05/26 01:37:09;;;;;;;12.20;10.50;;;;;;;26.18;42.27;100060.83;108018;1254;72751;-70
2023/05/26 01:39:35;;;;;;;16.00;11.60;;;;;;;26.28;42.01;100064.30;108020;1254;61691;-69
2023/05/26 01:42:20;;;;;;;17.00;12.20;;;;;;;26.08;42.16;100063.06;107990;1254;60226;-69
2023/05/26 01:45:11;;;;;;;14.70;10.70;;;;;;;26.09;42.08;100062.28;107979;1254;72834;-68
2023/05/26 01:47:41;;;;;;;13.10;11.00;;;;;;;26.04;42.05;100062.55;107989;1254;70324;-69
2023/05/26 01:50:08;;;;;;;11.90;10.10;;;;;;;26.04;41.91;100065.86;107643;1254;72453;-67
2023/05/26 01:52:37;;;;;;;14.10;9.50;;;;;;;25.99;41.95;100064.35;107840;1254;62603;-69
2023/05/26 01:55:07;;;;;;;15.30;11.70;;;;;;;25.96;41.86;100059.41;107943;1254;60293;-69
2023/05/26 01:57:35;;;;;;;13.40;9.80;;;;;;;25.68;42.25;100061.15;107954;1254;74252;-69
2023/05/26 02:00:03;;;;;;;10.80;9.60;;;;;;;25.45;42.69;100057.64;107870;1254;60451;-70
2023/05/26 02:02:41;;;;;;;17.90;11.70;;;;;;;25.45;42.76;100051.64;107939;1256;72486;-69
2023/05/26 02:05:08;;;;;;;16.70;11.60;;;;;;;25.49;42.64;100051.92;107897;1255;61868;-69
2023/05/26 02:07:35;;;;;;;18.10;12.60;;;;;;;25.53;42.57;100053.73;107883;1256;60295;-69
2023/05/26 02:10:03;;;;;;;15.50;12.00;;;;;;;25.55;42.56;100054.02;107942;1256;73876;-68
2023/05/26 02:12:32;;;;;;;16.80;11.50;;;;;;;25.62;42.50;100053.04;107856;1257;70212;-70
2023/05/26 02:15:00;;;;;;;18.80;12.40;;;;;;;25.50;42.64;100055.13;107829;1257;72752;-69
2023/05/26 02:17:28;;;;;;;13.80;11.30;;;;;;;25.36;42.91;100052.71;107847;1260;62030;-68
2023/05/26 02:19:57;;;;;;;15.80;12.00;;;;;;;25.35;42.94;100059.48;107907;1257;60388;-69
2023/05/26 02:22:24;;;;;;;14.70;12.10;;;;;;;25.28;42.97;100057.27;107954;1257;73882;-69
2023/05/26 02:24:51;;;;;;;14.20;11.60;;;;;;;25.42;42.70;100057.71;107988;1254;69177;-69
2023/05/26 02:27:17;;;;;;;14.90;12.40;;;;;;;25.41;42.74;100057.81;107866;1257;72351;-69
2023/05/26 02:29:45;;;;;;;15.30;12.20;;;;;;;25.41;42.67;100059.09;107979;1257;63115;-69
2023/05/26 02:32:12;;;;;;;13.80;11.20;;;;;;;25.40;42.65;100057.38;107909;1257;60524;-69
2023/05/26 02:34:39;;;;;;;15.40;12.70;;;;;;;25.22;42.90;100061.48;107894;1257;73330;-69
2023/05/26 02:37:05;;;;;;;21.30;12.10;;;;;;;25.30;43.01;100064.70;107889;1256;70314;-68
2023/05/26 02:39:33;;;;;;;16.80;12.40;;;;;;;25.38;42.81;100066.18;107922;1259;72675;-68
2023/05/26 02:42:01;;;;;;;17.10;11.90;;;;;;;25.63;42.40;100060.20;107939;1257;59152;-66
2023/05/26 02:44:27;;;;;;;16.30;12.30;;;;;;;25.43;42.77;100060.13;107943;1256;60407;-65
2023/05/26 02:46:57;;;;;;;17.40;13.30;;;;;;;25.33;43.09;100065.92;107924;1257;74552;-67
2023/05/26 02:49:24;;;;;;;18.70;12.50;;;;;;;25.14;43.52;100063.92;107986;1256;70828;-67
2023/05/26 02:51:51;;;;;;;17.80;12.90;;;;;;;25.47;43.16;100061.90;108006;1256;72752;-66
2023/05/26 02:54:17;;;;;;;19.90;13.20;;;;;;;25.74;42.71;100059.30;107951;1257;60326;-67
2023/05/26 02:56:46;;;;;;;16.70;13.70;;;;;;;25.48;43.22;100059.48;107960;1256;60446;-67
2023/05/26 02:59:12;;;;;;;16.70;13.90;;;;;;;25.56;43.39;100058.61;107965;1256;74298;-67
2023/05/26 03:01:39;;;;;;;14.10;11.90;;;;;;;25.73;43.21;100057.05;107919;1257;70270;-67
2023/05/26 03:04:06;;;;;;;14.50;11.70;;;;;;;25.91;43.07;100060.50;107945;1257;71980;-67
2023/05/26 03:06:34;;;;;;;15.60;13.10;;;;;;;25.95;43.09;100063.70;107935;1259;63206;-66
2023/05/26 03:09:01;;;;;;;15.40;12.00;;;;;;;25.92;43.28;100067.02;107874;1257;61991;-69
2023/05/26 03:11:29;;;;;;;16.50;12.80;;;;;;;26.14;42.84;100072.70;107848;1256;72977;-68
2023/05/26 03:13:57;;;;;;;18.90;12.50;;;;;;;26.17;42.73;100070.80;108056;1259;69064;-66
2023/05/26 03:16:25;;;;;;;13.20;11.70;;;;;;;26.45;42.44;100071.28;108037;1256;72386;-67
2023/05/26 03:18:52;;;;;;;16.40;13.40;;;;;;;26.76;41.90;100068.39;107923;1256;63498;-66
2023/05/26 03:21:20;;;;;;;13.30;10.90;;;;;;;27.03;41.71;100064.23;107971;1256;60610;-67
2023/05/26 03:24:07;;;;;;;14.60;12.90;;;;;;;27.24;41.11;100067.80;107898;1254;74213;-67
2023/05/26 03:26:35;;;;;;;17.90;11.60;;;;;;;27.37;40.97;100069.92;107943;1254;70690;-67
2023/05/26 03:29:02;;;;;;;12.10;10.50;;;;;;;27.36;41.01;100070.13;108000;1254;72928;-67
2023/05/26 03:31:28;;;;;;;15.60;11.60;;;;;;;27.36;40.86;100070.23;107986;1254;61963;-66
2023/05/26 03:33:55;;;;;;;14.50;12.00;;;;;;;27.38;41.09;100071.79;107982;1259;60575;-67
2023/05/26 03:36:22;;;;;;;15.30;12.90;;;;;;;27.42;41.07;100076.96;108031;1254;74120;-66
2023/05/26 03:38:49;;;;;;;19.10;12.40;;;;;;;27.56;40.98;100080.61;107935;1254;70354;-66
2023/05/26 03:41:16;;;;;;;13.90;11.70;;;;;;;27.64;41.08;100081.08;107955;1259;72045;-67
2023/05/26 03:43:52;;;;;;;12.60;10.80;;;;;;;27.99;40.87;100080.55;107984;1254;61810;-68
2023/05/26 03:46:20;;;;;;;13.90;11.10;;;;;;;28.47;40.11;100083.48;108031;1254;60237;-68
2023/05/26 03:48:46;;;;;;;18.60;11.10;;;;;;;28.69;39.75;100081.14;108006;1254;73793;-66
2023/05/26 03:51:13;;;;;;;14.60;11.40;;;;;;;29.01;39.21;100081.24;107933;1254;70941;-67
2023/05/26 03:53:41;;;;;;;13.40;9.80;;;;;;;29.20;38.87;100079.08;107942;1256;72651;-67
2023/05/26 03:56:08;;;;;;;11.60;9.70;;;;;;;29.42;38.82;100080.84;107956;1254;61818;-68
2023/05/26 03:58:35;;;;;;;15.80;10.00;;;;;;;29.82;37.93;100081.57;108046;1254;60451;-66
2023/05/26 04:01:03;;;;;;;15.00;9.80;;;;;;;30.09;37.39;100086.52;108006;1254;74463;-68
2023/05/26 04:03:30;;;;;;;16.50;11.80;;;;;;;30.44;36.79;100089.64;107926;1254;68937;-67
2023/05/26 04:05:59;;;;;;;14.90;9.50;;;;;;;30.75;36.02;100085.70;108031;1254;72571;-67
2023/05/26 04:08:27;;;;;;;10.40;8.80;;;;;;;30.99;35.68;100083.02;107991;1254;61685;-67
2023/05/26 04:10:54;;;;;;;9.40;8.40;;;;;;;31.61;34.44;100086.55;107993;1254;60208;-67
2023/05/26 04:13:21;;;;;;;19.00;9.30;;;;;;;31.65;34.05;100086.34;107919;1254;74076;-67
2023/05/26 04:15:48;;;;;;;11.00;8.40;;;;;;;31.80;33.95;100082.99;108024;1254;71371;-66
2023/05/26 04:18:15;;;;;;;11.00;8.30;;;;;;;32.03;33.64;100085.48;107911;1254;60545;-68
2023/05/26 04:20:43;;;;;;;10.00;7.50;;;;;;;32.51;32.41;100083.96;107963;1257;60683;-67
2023/05/26 04:23:10;;;;;;;9.40;7.20;;;;;;;32.80;31.57;100083.28;108045;1254;60327;-67
2023/05/26 04:25:37;;;;;;;14.20;6.70;;;;;;;32.90;31.40;100084.89;107974;1254;74634;-67
2023/05/26 04:28:27;;;;;;;11.60;6.80;;;;;;;32.98;30.81;100088.77;107863;1254;70283;-68
2023/05/26 04:31:16;;;;;;;11.60;7.60;;;;;;;32.57;30.87;100090.32;107943;1254;71246;-68
2023/05/26 04:34:02;;;;;;;7.70;6.40;;;;;;;33.31;29.54;100093.71;107962;1254;60309;-68
2023/05/26 04:36:41;;;;;;;9.20;6.30;;;;;;;33.17;28.98;100092.67;107970;1254;60267;-66
2023/05/26 04:39:08;;;;;;;7.90;6.20;;;;;;;32.90;29.33;100092.77;108032;1254;73531;-67
2023/05/26 04:41:34;;;;;;;10.70;6.20;;;;;;;33.01;29.02;100090.45;108061;1254;70827;-65
2023/05/26 04:44:01;;;;;;;10.40;6.50;;;;;;;33.43;28.69;100089.93;108035;1254;72965;-67
2023/05/26 04:46:31;;;;;;;9.10;6.10;;;;;;;33.92;28.23;100086.09;108013;1254;60526;-68
2023/05/26 04:48:58;;;;;;;9.20;6.60;;;;;;;34.21;27.24;100087.30;108072;1254;60457;-66
2023/05/26 04:51:24;;;;;;;9.80;5.80;;;;;;;34.45;26.96;100086.70;108018;1254;74029;-70
2023/05/26 04:53:51;;;;;;;6.30;5.40;;;;;;;34.68;26.81;100084.23;108027;1254;60550;-67
2023/05/26 04:56:21;;;;;;;7.40;5.10;;;;;;;35.16;26.28;100082.26;108019;1259;63865;-67
2023/05/26 04:58:52;;;;;;;6.00;5.20;;;;;;;35.65;25.84;100083.63;107955;1254;59979;-67
2023/05/26 05:01:18;;;;;;;8.70;5.40;;;;;;;35.71;25.60;100083.08;108082;1254;60197;-68
2023/05/26 05:04:11;;;;;;;8.40;5.60;;;;;;;35.96;25.41;100084.05;107809;1259;65170;-66
2023/05/26 05:06:49;;;;;;;6.80;5.60;;;;;;;36.30;24.65;100084.11;108059;1254;61505;-69
2023/05/26 05:09:16;;;;;;;9.70;5.20;;;;;;;36.23;24.38;100086.15;108043;1254;62869;-69
2023/05/26 05:11:42;;;;;;;12.20;5.40;;;;;;;36.31;24.65;100090.44;108073;1254;59327;-68
2023/05/26 05:14:10;;;;;;;6.70;5.10;;;;;;;36.71;23.93;100090.73;108027;1255;60538;-68
2023/05/26 05:16:37;;;;;;;9.10;4.60;;;;;;;36.92;23.85;100093.77;108068;1254;65267;-69
2023/05/26 05:19:03;;;;;;;5.90;4.90;;;;;;;37.03;23.71;100097.48;108008;1259;62020;-69
2023/05/26 05:21:33;;;;;;;6.20;4.80;;;;;;;37.47;23.28;100096.84;108026;1256;64088;-68
2023/05/26 05:24:00;;;;;;;9.40;4.70;;;;;;;37.66;22.68;100098.89;108021;1254;60434;-68
2023/05/26 05:26:27;;;;;;;12.20;5.30;;;;;;;37.86;22.57;100094.72;108046;1255;60357;-68
2023/05/26 05:28:53;;;;;;;11.60;5.20;;;;;;;38.12;22.57;100098.56;107957;1256;65443;-68
2023/05/26 05:31:29;;;;;;;10.10;4.90;;;;;;;38.32;22.21;100100.58;107973;1256;61713;-68
2023/05/26 05:33:56;;;;;;;7.10;4.50;;;;;;;38.33;21.78;100100.91;107983;1255;64501;-69
2023/05/26 05:36:23;;;;;;;6.30;4.90;;;;;;;38.32;21.80;100101.17;107810;1260;60404;-68
2023/05/26 05:38:51;;;;;;;7.90;4.90;;;;;;;38.46;21.45;100100.03;107839;1255;60412;-69
2023/05/26 05:41:18;;;;;;;8.40;4.90;;;;;;;38.55;21.64;100100.59;107955;1256;65195;-68
2023/05/26 05:43:45;;;;;;;5.90;4.50;;;;;;;38.60;21.40;100096.26;107851;1256;60327;-68
2023/05/26 05:46:12;;;;;;;6.90;4.40;;;;;;;38.99;21.22;100095.59;107976;1258;62779;-68
2023/05/26 05:48:54;;;;;;;8.70;4.40;;;;;;;39.34;20.81;100099.91;108009;1256;60351;-68
2023/05/26 05:51:27;;;;;;;6.40;4.70;;;;;;;39.41;20.52;100097.19;107975;1256;60299;-68
2023/05/26 05:53:55;;;;;;;8.00;4.40;;;;;;;39.47;20.65;100095.53;107831;1255;65046;-69
2023/05/26 05:56:26;;;;;;;12.50;4.00;;;;;;;39.37;20.67;100097.27;107891;1256;60467;-67
2023/05/26 05:58:53;;;;;;;13.00;4.40;;;;;;;39.53;20.11;100096.36;107977;1255;63952;-68
2023/05/26 06:01:22;;;;;;;5.30;3.70;;;;;;;39.64;20.01;100097.65;108009;1256;60329;-68
2023/05/26 06:03:50;;;;;;;7.40;4.30;;;;;;;40.08;19.97;100097.23;108023;1258;60411;-69
2023/05/26 06:06:17;;;;;;;5.30;4.30;;;;;;;40.19;19.68;100098.27;107880;1256;65130;-69
2023/05/26 06:08:44;;;;;;;8.10;4.10;;;;;;;40.03;19.66;100097.59;108020;1256;70391;-69
2023/05/26 06:11:11;;;;;;;5.90;4.10;;;;;;;40.19;19.35;100096.79;108022;1257;64175;-69
2023/05/26 06:13:39;;;;;;;5.30;3.60;;;;;;;39.96;19.40;100096.27;107898;1260;59637;-68
2023/05/26 06:16:06;;;;;;;5.10;4.00;;;;;;;40.00;19.26;100095.84;107874;1256;60542;-69
2023/05/26 06:18:33;;;;;;;6.40;3.90;;;;;;;40.01;19.36;100094.63;108026;1256;65233;-69
2023/05/26 06:21:00;;;;;;;6.00;3.80;;;;;;;39.86;19.68;100100.68;108071;1257;61835;-70
2023/05/26 06:23:28;;;;;;;7.60;3.80;;;;;;;40.15;19.32;100103.08;108005;1256;62729;-69
2023/05/26 06:25:55;;;;;;;5.70;3.50;;;;;;;40.35;18.81;100102.11;107847;1254;60313;-69
2023/05/26 06:28:22;;;;;;;8.20;3.70;;;;;;;40.19;18.55;100101.42;107970;1254;60466;-68
2023/05/26 06:30:49;;;;;;;4.40;3.80;;;;;;;40.19;18.66;100100.31;108037;1254;65210;-69
2023/05/26 06:33:38;;;;;;;7.90;3.90;;;;;;;40.45;18.48;100105.27;108013;1254;61963;-68
2023/05/26 06:36:04;;;;;;;6.00;3.90;;;;;;;40.43;18.18;100106.41;108018;1253;60482;-70
2023/05/26 06:38:31;;;;;;;5.90;4.10;;;;;;;40.13;18.21;100103.60;107965;1254;60301;-71
2023/05/26 11:11:00;;;;;;;5.10;3.50;;;;;;;32.50;22.70;100030.10;109558;1253;58450;-95
2023/05/26 11:14:12;;;;;;;7.60;3.70;;;;;;;33.30;22.54;100027.33;108482;1255;82254;-68
2023/05/26 11:16:43;;;;;;;8.10;3.50;;;;;;;33.59;22.05;100023.45;108037;1256;71329;-68
2023/05/26 11:19:10;;;;;;;;;;;;;;;33.53;22.00;100030.16;108000;1256;70306;-68
2023/05/26 11:21:38;;;;;;;4.20;3.20;;;;;;;33.59;21.87;100028.02;108024;1254;173588;-67
2023/05/26 11:24:06;;;;;;;5.20;2.90;;;;;;;33.74;21.96;100031.01;108016;1253;59135;-68
2023/05/26 11:26:33;;;;;;;6.20;3.30;;;;;;;33.74;21.96;100025.92;108137;1253;60008;-67
2023/05/26 11:29:03;;;;;;;7.50;3.60;;;;;;;33.74;21.93;100024.87;108008;1256;62087;-68
2023/05/26 11:31:30;;;;;;;11.00;3.70;;;;;;;33.96;21.80;100024.52;108029;1253;69263;-67
2023/05/26 11:33:58;;;;;;;11.00;3.70;;;;;;;34.08;21.81;100024.17;107978;1254;72661;-68
2023/05/26 11:36:25;;;;;;;6.00;3.30;;;;;;;34.16;21.71;100023.49;107850;1253;60147;-66
2023/05/26 11:38:56;;;;;;;7.80;3.80;;;;;;;34.00;21.90;100022.83;108031;1254;59084;-67
2023/05/26 11:41:28;;;;;;;9.40;3.40;;;;;;;34.14;21.91;100022.66;108033;1258;62833;-68
2023/05/26 11:43:56;;;;;;;3.80;3.20;;;;;;;34.21;21.91;100018.56;108008;1253;60234;-67
2023/05/26 11:46:26;;;;;;;4.80;3.30;;;;;;;34.33;22.00;100017.56;107995;1254;72806;-67
2023/05/26 11:48:54;;;;;;;5.30;3.60;;;;;;;34.50;21.96;100012.98;108059;1254;59656;-68
2023/05/26 11:51:22;;;;;;;6.50;3.40;;;;;;;34.63;21.48;100006.04;108041;1253;59576;-67
2023/05/26 11:53:54;;;;;;;4.30;3.10;;;;;;;34.60;21.26;100001.63;108054;1253;62859;-68
2023/05/26 11:56:21;;;;;;;4.50;3.30;;;;;;;34.67;21.29;99997.52;108128;1253;71195;-68
2023/05/26 11:58:53;;;;;;;4.60;3.60;;;;;;;34.67;21.16;99991.89;108035;1254;62676;-68
2023/05/26 12:01:21;;;;;;;5.40;3.40;;;;;;;34.71;21.55;99989.72;108174;1253;62338;-68
2023/05/26 12:03:49;;;;;;;6.10;3.20;;;;;;;34.90;21.36;99985.74;108123;1253;59224;-67
2023/05/26 12:06:24;;;;;;;5.60;3.50;;;;;;;34.98;20.68;99980.73;108021;1259;64110;-67
2023/05/26 12:08:51;;;;;;;6.90;3.30;;;;;;;34.94;20.52;99976.88;107963;1254;60410;-67
2023/05/26 12:11:28;;;;;;;6.00;3.20;;;;;;;34.70;20.83;99973.52;108002;1253;62465;-68
2023/05/26 12:13:57;;;;;;;5.70;3.50;;;;;;;34.88;20.60;99968.23;108010;1254;59638;-68
2023/05/26 12:16:35;;;;;;;12.20;3.40;;;;;;;35.00;20.71;99964.54;108060;1253;59641;-67
2023/05/26 12:19:07;;;;;;;8.20;3.50;;;;;;;34.86;20.51;99965.65;107970;1256;64140;-66
2023/05/26 12:21:45;;;;;;;6.40;3.30;;;;;;;34.90;20.94;99964.90;108055;1254;60129;-66
2023/05/26 12:24:13;;;;;;;6.50;3.50;;;;;;;35.07;20.66;99964.89;108014;1254;62450;-67
2023/05/26 12:26:46;;;;;;;8.60;3.20;;;;;;;35.36;20.69;99958.54;107984;1254;58994;-67
2023/05/26 12:29:15;;;;;;;6.90;3.00;;;;;;;35.21;20.30;99960.63;108014;1254;59515;-67
2023/05/26 12:31:45;;;;;;;9.80;3.30;;;;;;;35.07;20.56;99960.67;108029;1254;64131;-67
2023/05/26 12:34:14;;;;;;;7.60;3.20;;;;;;;34.75;20.37;99961.45;107989;1254;60123;-67
2023/05/26 12:36:42;;;;;;;11.00;3.10;;;;;;;34.35;20.48;99957.30;108063;1254;63767;-67
2023/05/26 12:39:14;;;;;;;9.40;3.70;;;;;;;33.96;20.33;99959.92;108024;1254;59509;-67
2023/05/26 12:41:41;;;;;;;6.20;2.80;;;;;;;33.81;20.31;99962.22;107986;1254;60022;-68
2023/05/26 12:44:09;;;;;;;5.30;3.00;;;;;;;33.74;20.26;99961.64;107994;1254;73161;-66
2023/05/26 12:46:38;;;;;;;6.80;3.30;;;;;;;33.93;19.99;99962.65;108046;1254;60185;-67
2023/05/26 12:49:09;;;;;;;14.70;3.60;;;;;;;33.98;19.85;99960.87;108010;1254;62741;-67
2023/05/26 12:51:37;;;;;;;5.60;3.10;;;;;;;33.81;20.05;99956.88;107930;1254;60238;-68
2023/05/26 12:54:06;;;;;;;5.60;3.20;;;;;;;33.66;20.03;99956.95;108085;1254;59554;-67
2023/05/26 12:56:33;;;;;;;5.90;3.70;;;;;;;33.69;19.84;99955.42;108094;1254;73160;-67
2023/05/26 12:59:01;;;;;;;6.70;3.40;;;;;;;33.73;19.84;99954.63;108141;1254;61401;-67
2023/05/26 13:01:44;;;;;;;7.00;3.20;;;;;;;33.63;20.13;99953.55;108070;1254;71458;-67
2023/05/26 13:04:12;;;;;;;9.80;3.50;;;;;;;33.58;20.25;99949.85;107959;1259;60190;-67
2023/05/26 13:06:39;;;;;;;7.30;3.20;;;;;;;33.70;20.15;99953.13;108089;1254;60043;-67
2023/05/26 13:09:07;;;;;;;8.60;2.90;;;;;;;33.94;19.19;99950.53;107944;1256;71809;-66
2023/05/26 13:11:34;;;;;;;5.40;3.10;;;;;;;34.11;18.18;99948.88;108050;1254;60122;-67
2023/05/26 13:14:01;;;;;;;5.20;2.60;;;;;;;34.24;17.61;99943.80;108042;1254;63718;-67
2023/05/26 13:16:32;;;;;;;5.40;2.50;;;;;;;34.28;17.16;99944.71;108092;1254;60074;-68
2023/05/26 13:18:59;;;;;;;11.20;3.40;;;;;;;34.45;16.47;99946.55;108116;1254;59483;-67
2023/05/26 13:21:27;;;;;;;4.30;2.90;;;;;;;34.62;16.82;99945.63;108065;1254;62850;-67
2023/05/26 13:23:55;;;;;;;4.70;2.90;;;;;;;34.59;16.60;99943.61;108121;1254;60091;-67
2023/05/26 13:26:23;;;;;;;4.80;2.70;;;;;;;34.42;16.75;99939.86;107873;1255;62447;-68
2023/05/26 13:28:51;;;;;;;5.00;2.90;;;;;;;34.23;17.14;99935.91;108010;1254;59728;-68
2023/05/26 13:31:19;;;;;;;4.10;2.80;;;;;;;34.24;17.16;99938.21;108027;1254;59627;-68
2023/05/26 13:33:47;;;;;;;5.20;2.80;;;;;;;34.38;17.39;99940.29;108057;1254;64195;-67
2023/05/26 13:36:14;;;;;;;4.50;2.90;;;;;;;34.48;17.59;99940.80;107975;1254;60248;-67
2023/05/26 13:38:42;;;;;;;6.30;4.00;;;;;;;34.71;17.72;99936.40;108025;1254;63818;-66
2023/05/26 13:41:12;;;;;;;7.40;2.90;;;;;;;34.98;17.46;99940.27;107996;1258;59534;-68
2023/05/26 13:43:39;;;;;;;2.70;2.30;;;;;;;34.90;17.56;99934.59;108012;1254;59157;-66
2023/05/26 13:46:07;;;;;;;4.90;2.90;;;;;;;34.99;17.75;99933.62;107994;1254;64164;-68
2023/05/26 13:48:34;;;;;;;3.50;2.70;;;;;;;35.09;17.50;99934.15;107873;1254;61434;-68
2023/05/26 13:51:01;;;;;;;5.20;2.70;;;;;;;35.32;17.21;99928.52;108022;1254;62491;-68
2023/05/26 13:53:28;;;;;;;8.40;3.20;;;;;;;35.41;17.30;99924.34;107930;1254;59719;-68
2023/05/26 13:55:56;;;;;;;8.80;3.20;;;;;;;35.44;17.42;99922.96;108026;1254;59519;-68
2023/05/26 13:58:23;;;;;;;5.70;3.00;;;;;;;35.43;17.51;99922.97;108047;1254;66305;-68
2023/05/26 14:00:50;;;;;;;5.50;2.80;;;;;;;35.48;17.26;99919.23;107988;1254;60123;-67
2023/05/26 14:03:18;;;;;;;5.10;2.90;;;;;;;35.43;17.08;99916.79;108032;1254;63688;-67
2023/05/26 14:05:45;;;;;;;5.00;3.00;;;;;;;35.67;17.14;99915.52;108050;1254;59565;-67
2023/05/26 14:08:13;;;;;;;5.00;2.80;;;;;;;35.77;17.31;99917.10;108049;1254;59393;-66
2023/05/26 14:10:40;;;;;;;4.50;2.90;;;;;;;35.47;17.17;99910.05;107988;1254;64211;-66
2023/05/26 14:13:07;;;;;;;5.90;3.10;;;;;;;35.30;17.46;99904.60;108064;1254;61399;-67
2023/05/26 14:15:35;;;;;;;12.00;3.50;;;;;;;35.42;17.37;99910.94;107930;1255;63716;-67
2023/05/26 14:18:02;;;;;;;8.00;2.70;;;;;;;35.27;17.34;99914.14;108062;1254;59615;-67
2023/05/26 14:20:34;;;;;;;5.50;2.80;;;;;;;35.32;17.32;99913.14;108041;1254;59766;-67
2023/05/26 14:23:22;;;;;;;5.10;2.90;;;;;;;35.41;17.41;99915.24;107968;1254;63407;-67
2023/05/26 14:25:52;;;;;;;8.40;2.90;;;;;;;35.12;17.87;99920.48;108024;1254;62082;-66
2023/05/26 14:28:19;;;;;;;8.80;3.40;;;;;;;34.70;18.02;99916.98;108075;1255;63782;-67
2023/05/26 14:30:47;;;;;;;14.80;3.60;;;;;;;34.87;18.24;99918.71;108073;1254;62292;-69
2023/05/26 14:33:14;;;;;;;6.70;3.00;;;;;;;35.00;18.07;99922.45;108034;1254;59614;-67
2023/05/26 14:35:42;;;;;;;5.40;3.10;;;;;;;34.60;18.36;99918.95;108055;1257;64046;-68
2023/05/26 14:38:09;;;;;;;7.40;3.10;;;;;;;34.08;18.74;99917.27;108056;1254;60350;-67
2023/05/26 14:40:37;;;;;;;4.20;2.90;;;;;;;34.03;18.91;99911.69;108079;1254;62460;-68
2023/05/26 14:43:04;;;;;;;5.00;2.90;;;;;;;34.27;19.02;99912.38;108029;1254;59506;-68
2023/05/26 14:45:32;;;;;;;6.80;2.80;;;;;;;34.34;18.98;99909.73;108050;1254;59929;-67
2023/05/26 14:47:59;;;;;;;4.50;3.20;;;;;;;34.35;19.05;99908.77;107961;1255;73117;-69
2023/05/26 14:50:27;;;;;;;7.10;2.90;;;;;;;34.88;18.62;99910.33;107985;1254;61335;-66
2023/05/26 14:52:54;;;;;;;7.50;3.20;;;;;;;35.13;18.30;99904.02;107944;1254;62559;-67
2023/05/26 14:55:23;;;;;;;4.10;3.20;;;;;;;35.26;18.29;99908.77;107821;1256;59659;-67
2023/05/26 14:57:52;;;;;;;8.20;3.30;;;;;;;35.24;18.25;99907.02;107868;1257;59630;-68
2023/05/26 15:00:22;;;;;;;7.00;3.40;;;;;;;35.21;18.21;99906.70;107829;1254;64279;-68
2023/05/26 15:02:51;;;;;;;7.90;3.20;;;;;;;35.20;18.56;99905.45;107924;1254;61339;-67
2023/05/26 15:05:19;;;;;;;6.50;2.90;;;;;;;35.44;18.43;99909.23;107820;1254;72450;-71
2023/05/26 15:07:48;;;;;;;6.70;3.10;;;;;;;35.52;18.32;99912.36;107916;1255;59563;-64
2023/05/26 15:10:15;;;;;;;6.70;2.80;;;;;;;35.57;18.22;99909.77;107857;1255;59212;-64
2023/05/26 15:13:00;;;;;;;5.00;3.00;;;;;;;35.71;17.95;99910.45;108001;1254;64383;-67
2023/05/26 15:15:28;;;;;;;7.00;3.00;;;;;;;35.73;17.78;99912.43;107934;1259;61423;-68
2023/05/26 15:17:55;;;;;;;3.50;2.70;;;;;;;35.35;17.85;99908.65;107885;1256;63757;-68
2023/05/26 15:20:25;;;;;;;5.00;3.30;;;;;;;35.06;18.47;99914.79;107945;1254;60361;-67
2023/05/26 15:22:52;;;;;;;6.00;3.20;;;;;;;35.22;19.15;99919.11;107836;1255;60464;-65
2023/05/26 15:25:19;;;;;;;11.00;3.50;;;;;;;35.54;20.89;99921.61;107975;1254;64896;-68
2023/05/26 15:27:47;;;;;;;11.60;3.90;;;;;;;35.31;22.07;99924.55;107986;1259;61365;-69
2023/05/26 15:30:15;;;;;;;20.20;4.20;;;;;;;34.79;23.19;99931.05;108008;1254;63735;-69
2023/05/26 15:32:45;;;;;;;30.10;4.20;;;;;;;34.50;23.78;99937.30;108005;1254;60462;-68
2023/05/26 15:35:13;;;;;;;11.40;3.70;;;;;;;34.28;24.09;99940.39;107891;1259;60476;-68
2023/05/26 15:37:41;;;;;;;15.60;4.50;;;;;;;34.47;24.06;99943.33;107992;1259;64926;-68
2023/05/26 15:40:18;;;;;;;11.00;5.00;;;;;;;34.15;24.67;99946.89;107926;1254;60422;-69
2023/05/26 15:42:46;;;;;;;11.50;5.50;;;;;;;33.64;25.50;99942.20;107905;1257;71527;-67
2023/05/26 15:45:13;;;;;;;12.00;5.80;;;;;;;33.41;25.68;99951.86;107934;1259;60459;-68
2023/05/26 15:47:40;;;;;;;10.80;4.20;;;;;;;33.43;25.82;99946.69;107891;1254;60309;-69
2023/05/26 15:50:08;;;;;;;9.70;3.90;;;;;;;33.39;25.86;99950.85;107848;1257;72653;-69
2023/05/26 15:52:35;;;;;;;8.60;3.80;;;;;;;33.38;25.85;99951.14;107831;1254;69360;-69
2023/05/26 15:55:03;;;;;;;11.60;3.90;;;;;;;33.34;26.11;99955.09;107942;1256;72316;-67